sensor_id;sensor_type;location;lat;lon;timestamp;P1;durP1;ratioP1;P2;durP2;ratioP2
72156;SDS011;60035;52.122;5.406;2023-07-24T00:00:15;6.80;;;2.70;;
72156;SDS011;60035;52.122;5.406;2023-07-24T00:02:42;6.55;;;2.88;;
72156;SDS011;60035;52.122;5.406;2023-07-24T00:05:08;7.10;;;2.78;;
72156;SDS011;60035;52.122;5.406;2023-07-24T00:07:36;6.22;;;2.70;;
72156;SDS011;60035;52.122;5.406;2023-07-24T00:10:03;6.95;;;2.60;;
72156;SDS011;60035;52.122;5.406;2023-07-24T00:12:30;9.00;;;3.00;;
72156;SDS011;60035;52.122;5.406;2023-07-24T00:14:57;7.22;;;2.75;;
72156;SDS011;60035;52.122;5.406;2023-07-24T00:17:23;6.32;;;2.63;;
72156;SDS011;60035;52.122;5.406;2023-07-24T00:19:50;6.85;;;2.95;;
72156;SDS011;60035;52.122;5.406;2023-07-24T00:22:17;7.50;;;2.88;;
72156;SDS011;60035;52.122;5.406;2023-07-24T00:24:43;6.95;;;2.70;;
72156;SDS011;60035;52.122;5.406;2023-07-24T00:27:10;7.53;;;3.40;;
72156;SDS011;60035;52.122;5.406;2023-07-24T00:29:36;7.07;;;2.85;;
72156;SDS011;60035;52.122;5.406;2023-07-24T00:32:03;6.68;;;2.80;;
72156;SDS011;60035;52.122;5.406;2023-07-24T00:34:30;6.35;;;2.70;;
72156;SDS011;60035;52.122;5.406;2023-07-24T00:36:56;8.35;;;2.78;;
72156;SDS011;60035;52.122;5.406;2023-07-24T00:39:23;7.10;;;2.85;;
72156;SDS011;60035;52.122;5.406;2023-07-24T00:41:49;7.70;;;3.30;;
72156;SDS011;60035;52.122;5.406;2023-07-24T00:44:18;8.85;;;3.28;;
72156;SDS011;60035;52.122;5.406;2023-07-24T00:46:44;7.15;;;3.20;;
72156;SDS011;60035;52.122;5.406;2023-07-24T00:49:11;7.18;;;3.03;;
72156;SDS011;60035;52.122;5.406;2023-07-24T00:51:42;8.25;;;3.40;;
72156;SDS011;60035;52.122;5.406;2023-07-24T00:54:10;6.75;;;3.22;;
72156;SDS011;60035;52.122;5.406;2023-07-24T00:56:38;7.35;;;3.05;;
72156;SDS011;60035;52.122;5.406;2023-07-24T00:59:05;6.20;;;2.80;;
72156;SDS011;60035;52.122;5.406;2023-07-24T01:01:37;7.53;;;3.42;;
72156;SDS011;60035;52.122;5.406;2023-07-24T01:04:06;7.95;;;3.30;;
72156;SDS011;60035;52.122;5.406;2023-07-24T01:06:33;10.40;;;3.40;;
72156;SDS011;60035;52.122;5.406;2023-07-24T01:09:00;7.03;;;2.97;;
72156;SDS011;60035;52.122;5.406;2023-07-24T01:11:33;8.70;;;3.50;;
72156;SDS011;60035;52.122;5.406;2023-07-24T01:14:12;9.40;;;3.33;;
72156;SDS011;60035;52.122;5.406;2023-07-24T01:19:20;6.80;;;3.15;;
72156;SDS011;60035;52.122;5.406;2023-07-24T01:27:44;7.50;;;3.35;;
72156;SDS011;60035;52.122;5.406;2023-07-24T01:30:16;7.70;;;3.30;;
72156;SDS011;60035;52.122;5.406;2023-07-24T01:32:44;7.13;;;3.13;;
72156;SDS011;60035;52.122;5.406;2023-07-24T01:35:11;8.13;;;3.50;;
72156;SDS011;60035;52.122;5.406;2023-07-24T01:37:38;8.00;;;3.10;;
72156;SDS011;60035;52.122;5.406;2023-07-24T01:40:07;7.75;;;3.03;;
72156;SDS011;60035;52.122;5.406;2023-07-24T01:42:34;7.05;;;3.28;;
72156;SDS011;60035;52.122;5.406;2023-07-24T01:45:02;7.20;;;2.97;;
72156;SDS011;60035;52.122;5.406;2023-07-24T01:47:30;7.57;;;3.25;;
72156;SDS011;60035;52.122;5.406;2023-07-24T01:49:56;7.22;;;3.22;;
72156;SDS011;60035;52.122;5.406;2023-07-24T01:52:23;7.10;;;3.10;;
72156;SDS011;60035;52.122;5.406;2023-07-24T01:54:49;7.65;;;3.60;;
72156;SDS011;60035;52.122;5.406;2023-07-24T01:57:17;8.32;;;3.60;;
72156;SDS011;60035;52.122;5.406;2023-07-24T01:59:44;8.02;;;3.70;;
72156;SDS011;60035;52.122;5.406;2023-07-24T02:02:11;8.15;;;3.47;;
72156;SDS011;60035;52.122;5.406;2023-07-24T02:04:37;7.50;;;3.50;;
72156;SDS011;60035;52.122;5.406;2023-07-24T02:07:04;8.48;;;3.83;;
72156;SDS011;60035;52.122;5.406;2023-07-24T02:09:30;9.77;;;3.80;;
72156;SDS011;60035;52.122;5.406;2023-07-24T02:12:03;8.20;;;3.58;;
72156;SDS011;60035;52.122;5.406;2023-07-24T02:14:30;9.18;;;4.00;;
72156;SDS011;60035;52.122;5.406;2023-07-24T02:16:57;8.02;;;3.40;;
72156;SDS011;60035;52.122;5.406;2023-07-24T02:19:23;8.60;;;3.80;;
72156;SDS011;60035;52.122;5.406;2023-07-24T02:21:50;7.03;;;3.08;;
72156;SDS011;60035;52.122;5.406;2023-07-24T02:24:16;9.30;;;3.72;;
72156;SDS011;60035;52.122;5.406;2023-07-24T02:26:43;9.20;;;4.10;;
72156;SDS011;60035;52.122;5.406;2023-07-24T02:29:09;6.97;;;3.42;;
72156;SDS011;60035;52.122;5.406;2023-07-24T02:31:36;7.93;;;3.63;;
72156;SDS011;60035;52.122;5.406;2023-07-24T02:34:02;8.23;;;3.70;;
72156;SDS011;60035;52.122;5.406;2023-07-24T02:36:29;8.60;;;3.65;;
72156;SDS011;60035;52.122;5.406;2023-07-24T02:38:56;7.75;;;3.60;;
72156;SDS011;60035;52.122;5.406;2023-07-24T02:41:22;8.48;;;3.70;;
72156;SDS011;60035;52.122;5.406;2023-07-24T02:43:49;8.10;;;3.47;;
72156;SDS011;60035;52.122;5.406;2023-07-24T02:46:15;7.75;;;3.55;;
72156;SDS011;60035;52.122;5.406;2023-07-24T02:48:42;9.30;;;3.40;;
72156;SDS011;60035;52.122;5.406;2023-07-24T02:51:09;8.13;;;3.55;;
72156;SDS011;60035;52.122;5.406;2023-07-24T02:53:35;8.82;;;3.80;;
72156;SDS011;60035;52.122;5.406;2023-07-24T02:56:02;7.68;;;3.67;;
72156;SDS011;60035;52.122;5.406;2023-07-24T02:58:28;8.25;;;3.67;;
72156;SDS011;60035;52.122;5.406;2023-07-24T03:01:02;8.00;;;3.65;;
72156;SDS011;60035;52.122;5.406;2023-07-24T03:03:29;8.48;;;4.00;;
72156;SDS011;60035;52.122;5.406;2023-07-24T03:05:56;9.25;;;4.43;;
72156;SDS011;60035;52.122;5.406;2023-07-24T03:08:22;8.27;;;3.88;;
72156;SDS011;60035;52.122;5.406;2023-07-24T03:10:49;8.32;;;3.95;;
72156;SDS011;60035;52.122;5.406;2023-07-24T03:13:15;9.20;;;4.18;;
72156;SDS011;60035;52.122;5.406;2023-07-24T03:15:42;10.10;;;4.18;;
72156;SDS011;60035;52.122;5.406;2023-07-24T03:18:09;9.57;;;3.67;;
72156;SDS011;60035;52.122;5.406;2023-07-24T03:20:35;8.48;;;3.90;;
72156;SDS011;60035;52.122;5.406;2023-07-24T03:23:02;8.13;;;3.70;;
72156;SDS011;60035;52.122;5.406;2023-07-24T03:25:28;8.13;;;3.70;;
72156;SDS011;60035;52.122;5.406;2023-07-24T03:27:55;7.88;;;3.25;;
72156;SDS011;60035;52.122;5.406;2023-07-24T03:30:22;9.23;;;3.55;;
72156;SDS011;60035;52.122;5.406;2023-07-24T03:32:49;9.27;;;3.50;;
72156;SDS011;60035;52.122;5.406;2023-07-24T03:35:15;7.22;;;3.33;;
72156;SDS011;60035;52.122;5.406;2023-07-24T03:37:42;8.07;;;3.30;;
72156;SDS011;60035;52.122;5.406;2023-07-24T03:40:09;7.93;;;3.38;;
72156;SDS011;60035;52.122;5.406;2023-07-24T03:42:35;8.55;;;3.15;;
72156;SDS011;60035;52.122;5.406;2023-07-24T03:45:02;9.68;;;3.47;;
72156;SDS011;60035;52.122;5.406;2023-07-24T03:47:32;8.48;;;3.10;;
72156;SDS011;60035;52.122;5.406;2023-07-24T03:49:58;8.40;;;3.22;;
72156;SDS011;60035;52.122;5.406;2023-07-24T03:52:25;8.68;;;3.30;;
72156;SDS011;60035;52.122;5.406;2023-07-24T03:54:52;7.93;;;3.38;;
72156;SDS011;60035;52.122;5.406;2023-07-24T03:57:19;9.00;;;3.17;;
72156;SDS011;60035;52.122;5.406;2023-07-24T03:59:45;9.30;;;3.50;;
72156;SDS011;60035;52.122;5.406;2023-07-24T04:02:12;9.07;;;3.80;;
72156;SDS011;60035;52.122;5.406;2023-07-24T04:04:38;9.50;;;3.45;;
72156;SDS011;60035;52.122;5.406;2023-07-24T04:07:05;9.07;;;3.60;;
72156;SDS011;60035;52.122;5.406;2023-07-24T04:09:33;9.18;;;3.13;;
72156;SDS011;60035;52.122;5.406;2023-07-24T04:12:00;9.75;;;3.55;;
72156;SDS011;60035;52.122;5.406;2023-07-24T04:14:26;8.07;;;3.33;;
72156;SDS011;60035;52.122;5.406;2023-07-24T04:16:53;9.57;;;3.80;;
72156;SDS011;60035;52.122;5.406;2023-07-24T04:19:21;8.80;;;3.90;;
72156;SDS011;60035;52.122;5.406;2023-07-24T04:21:48;9.90;;;3.92;;
72156;SDS011;60035;52.122;5.406;2023-07-24T04:24:14;10.70;;;3.95;;
72156;SDS011;60035;52.122;5.406;2023-07-24T04:26:41;11.07;;;3.92;;
72156;SDS011;60035;52.122;5.406;2023-07-24T04:29:08;10.10;;;4.20;;
72156;SDS011;60035;52.122;5.406;2023-07-24T04:31:35;9.40;;;3.90;;
72156;SDS011;60035;52.122;5.406;2023-07-24T04:34:01;9.65;;;4.00;;
72156;SDS011;60035;52.122;5.406;2023-07-24T04:36:28;8.48;;;3.58;;
72156;SDS011;60035;52.122;5.406;2023-07-24T04:38:55;11.52;;;4.43;;
72156;SDS011;60035;52.122;5.406;2023-07-24T04:41:21;9.80;;;4.10;;
72156;SDS011;60035;52.122;5.406;2023-07-24T04:43:48;9.50;;;3.60;;
72156;SDS011;60035;52.122;5.406;2023-07-24T04:46:14;9.00;;;3.70;;
72156;SDS011;60035;52.122;5.406;2023-07-24T04:48:41;10.15;;;4.47;;
72156;SDS011;60035;52.122;5.406;2023-07-24T04:51:08;12.75;;;3.72;;
72156;SDS011;60035;52.122;5.406;2023-07-24T04:53:34;10.45;;;4.03;;
72156;SDS011;60035;52.122;5.406;2023-07-24T04:56:01;10.05;;;4.07;;
72156;SDS011;60035;52.122;5.406;2023-07-24T04:58:27;8.85;;;3.60;;
72156;SDS011;60035;52.122;5.406;2023-07-24T05:00:54;10.40;;;4.10;;
72156;SDS011;60035;52.122;5.406;2023-07-24T05:03:20;13.55;;;4.32;;
72156;SDS011;60035;52.122;5.406;2023-07-24T05:05:54;10.60;;;3.97;;
72156;SDS011;60035;52.122;5.406;2023-07-24T05:08:22;12.85;;;4.53;;
72156;SDS011;60035;52.122;5.406;2023-07-24T05:10:55;9.73;;;4.05;;
72156;SDS011;60035;52.122;5.406;2023-07-24T05:13:23;10.75;;;4.65;;
72156;SDS011;60035;52.122;5.406;2023-07-24T05:15:49;9.82;;;4.32;;
72156;SDS011;60035;52.122;5.406;2023-07-24T05:18:16;10.27;;;4.35;;
72156;SDS011;60035;52.122;5.406;2023-07-24T05:20:44;10.45;;;4.55;;
72156;SDS011;60035;52.122;5.406;2023-07-24T05:23:12;10.18;;;4.40;;
72156;SDS011;60035;52.122;5.406;2023-07-24T05:25:39;10.40;;;4.25;;
72156;SDS011;60035;52.122;5.406;2023-07-24T05:28:06;10.25;;;4.40;;
72156;SDS011;60035;52.122;5.406;2023-07-24T05:30:33;10.75;;;4.53;;
72156;SDS011;60035;52.122;5.406;2023-07-24T05:33:00;10.27;;;4.20;;
72156;SDS011;60035;52.122;5.406;2023-07-24T05:35:26;13.63;;;4.68;;
72156;SDS011;60035;52.122;5.406;2023-07-24T05:37:53;11.93;;;4.78;;
72156;SDS011;60035;52.122;5.406;2023-07-24T05:40:20;11.75;;;4.45;;
72156;SDS011;60035;52.122;5.406;2023-07-24T05:42:46;11.48;;;4.40;;
72156;SDS011;60035;52.122;5.406;2023-07-24T05:45:14;11.20;;;4.72;;
72156;SDS011;60035;52.122;5.406;2023-07-24T05:47:43;11.90;;;4.65;;
72156;SDS011;60035;52.122;5.406;2023-07-24T05:50:10;11.52;;;4.43;;
72156;SDS011;60035;52.122;5.406;2023-07-24T05:52:39;10.95;;;5.05;;
72156;SDS011;60035;52.122;5.406;2023-07-24T05:55:06;12.80;;;4.75;;
72156;SDS011;60035;52.122;5.406;2023-07-24T05:57:33;15.05;;;4.95;;
72156;SDS011;60035;52.122;5.406;2023-07-24T06:00:00;11.38;;;4.47;;
72156;SDS011;60035;52.122;5.406;2023-07-24T06:02:26;9.80;;;3.95;;
72156;SDS011;60035;52.122;5.406;2023-07-24T06:04:53;9.65;;;4.32;;
72156;SDS011;60035;52.122;5.406;2023-07-24T06:07:19;12.85;;;5.10;;
72156;SDS011;60035;52.122;5.406;2023-07-24T06:09:46;10.98;;;4.47;;
72156;SDS011;60035;52.122;5.406;2023-07-24T06:12:12;12.52;;;4.30;;
72156;SDS011;60035;52.122;5.406;2023-07-24T06:14:39;11.98;;;4.72;;
72156;SDS011;60035;52.122;5.406;2023-07-24T06:17:05;12.18;;;4.32;;
72156;SDS011;60035;52.122;5.406;2023-07-24T06:19:32;10.52;;;4.18;;
72156;SDS011;60035;52.122;5.406;2023-07-24T06:21:58;10.93;;;4.10;;
72156;SDS011;60035;52.122;5.406;2023-07-24T06:24:25;12.48;;;4.65;;
72156;SDS011;60035;52.122;5.406;2023-07-24T06:26:51;11.68;;;4.05;;
72156;SDS011;60035;52.122;5.406;2023-07-24T06:29:18;12.07;;;4.93;;
72156;SDS011;60035;52.122;5.406;2023-07-24T06:31:44;11.32;;;3.90;;
72156;SDS011;60035;52.122;5.406;2023-07-24T06:34:11;12.45;;;5.28;;
72156;SDS011;60035;52.122;5.406;2023-07-24T06:36:37;12.80;;;4.85;;
72156;SDS011;60035;52.122;5.406;2023-07-24T06:39:04;12.60;;;4.05;;
72156;SDS011;60035;52.122;5.406;2023-07-24T06:41:31;10.68;;;4.45;;
72156;SDS011;60035;52.122;5.406;2023-07-24T06:43:57;10.93;;;4.10;;
72156;SDS011;60035;52.122;5.406;2023-07-24T06:46:24;10.73;;;3.95;;
72156;SDS011;60035;52.122;5.406;2023-07-24T06:48:50;10.68;;;4.15;;
72156;SDS011;60035;52.122;5.406;2023-07-24T06:51:17;10.77;;;3.97;;
72156;SDS011;60035;52.122;5.406;2023-07-24T06:53:43;12.65;;;3.92;;
72156;SDS011;60035;52.122;5.406;2023-07-24T06:56:10;10.00;;;3.58;;
72156;SDS011;60035;52.122;5.406;2023-07-24T06:58:36;10.73;;;4.00;;
72156;SDS011;60035;52.122;5.406;2023-07-24T07:01:06;12.15;;;3.88;;
72156;SDS011;60035;52.122;5.406;2023-07-24T07:03:33;11.40;;;4.03;;
72156;SDS011;60035;52.122;5.406;2023-07-24T07:06:02;9.82;;;3.72;;
72156;SDS011;60035;52.122;5.406;2023-07-24T07:08:29;9.48;;;3.50;;
72156;SDS011;60035;52.122;5.406;2023-07-24T07:10:59;11.43;;;4.30;;
72156;SDS011;60035;52.122;5.406;2023-07-24T07:13:27;10.70;;;3.83;;
72156;SDS011;60035;52.122;5.406;2023-07-24T07:15:54;11.27;;;4.43;;
72156;SDS011;60035;52.122;5.406;2023-07-24T07:18:21;9.43;;;4.07;;
72156;SDS011;60035;52.122;5.406;2023-07-24T07:20:48;11.68;;;3.85;;
72156;SDS011;60035;52.122;5.406;2023-07-24T07:23:15;10.77;;;4.10;;
72156;SDS011;60035;52.122;5.406;2023-07-24T07:25:42;10.38;;;4.05;;
72156;SDS011;60035;52.122;5.406;2023-07-24T07:28:12;10.75;;;3.72;;
72156;SDS011;60035;52.122;5.406;2023-07-24T07:30:39;10.73;;;3.97;;
72156;SDS011;60035;52.122;5.406;2023-07-24T07:33:10;11.07;;;4.38;;
72156;SDS011;60035;52.122;5.406;2023-07-24T07:35:36;10.65;;;4.57;;
72156;SDS011;60035;52.122;5.406;2023-07-24T07:38:03;12.77;;;4.25;;
72156;SDS011;60035;52.122;5.406;2023-07-24T07:40:29;12.32;;;4.35;;
72156;SDS011;60035;52.122;5.406;2023-07-24T07:42:56;10.40;;;4.40;;
72156;SDS011;60035;52.122;5.406;2023-07-24T07:45:23;10.27;;;4.22;;
72156;SDS011;60035;52.122;5.406;2023-07-24T07:47:50;10.70;;;4.53;;
72156;SDS011;60035;52.122;5.406;2023-07-24T07:50:19;12.45;;;4.40;;
72156;SDS011;60035;52.122;5.406;2023-07-24T07:52:49;10.32;;;4.65;;
72156;SDS011;60035;52.122;5.406;2023-07-24T07:55:17;11.18;;;4.80;;
72156;SDS011;60035;52.122;5.406;2023-07-24T07:57:46;11.10;;;4.38;;
72156;SDS011;60035;52.122;5.406;2023-07-24T08:00:13;10.52;;;4.82;;
72156;SDS011;60035;52.122;5.406;2023-07-24T08:02:40;9.07;;;4.20;;
72156;SDS011;60035;52.122;5.406;2023-07-24T08:05:07;9.18;;;3.85;;
72156;SDS011;60035;52.122;5.406;2023-07-24T08:07:43;9.73;;;4.55;;
72156;SDS011;60035;52.122;5.406;2023-07-24T08:10:09;10.18;;;4.57;;
72156;SDS011;60035;52.122;5.406;2023-07-24T08:12:36;9.95;;;4.18;;
72156;SDS011;60035;52.122;5.406;2023-07-24T08:15:03;10.60;;;4.32;;
72156;SDS011;60035;52.122;5.406;2023-07-24T08:17:30;13.50;;;4.40;;
72156;SDS011;60035;52.122;5.406;2023-07-24T08:19:57;9.35;;;3.90;;
72156;SDS011;60035;52.122;5.406;2023-07-24T08:22:23;9.98;;;4.38;;
72156;SDS011;60035;52.122;5.406;2023-07-24T08:24:53;10.57;;;4.30;;
72156;SDS011;60035;52.122;5.406;2023-07-24T08:27:22;11.48;;;4.10;;
72156;SDS011;60035;52.122;5.406;2023-07-24T08:29:51;11.25;;;4.10;;
72156;SDS011;60035;52.122;5.406;2023-07-24T08:32:21;8.95;;;3.88;;
72156;SDS011;60035;52.122;5.406;2023-07-24T08:34:50;9.27;;;3.90;;
72156;SDS011;60035;52.122;5.406;2023-07-24T08:37:17;9.18;;;4.07;;
72156;SDS011;60035;52.122;5.406;2023-07-24T08:42:14;10.88;;;4.10;;
72156;SDS011;60035;52.122;5.406;2023-07-24T08:44:42;11.40;;;4.22;;
72156;SDS011;60035;52.122;5.406;2023-07-24T08:47:12;10.43;;;4.40;;
72156;SDS011;60035;52.122;5.406;2023-07-24T08:49:41;9.95;;;4.20;;
72156;SDS011;60035;52.122;5.406;2023-07-24T08:52:09;11.63;;;4.45;;
72156;SDS011;60035;52.122;5.406;2023-07-24T08:54:52;10.82;;;4.07;;
72156;SDS011;60035;52.122;5.406;2023-07-24T08:57:20;10.82;;;4.25;;
72156;SDS011;60035;52.122;5.406;2023-07-24T08:59:47;10.77;;;4.13;;
72156;SDS011;60035;52.122;5.406;2023-07-24T09:02:14;10.43;;;4.40;;
72156;SDS011;60035;52.122;5.406;2023-07-24T09:04:40;11.73;;;4.45;;
72156;SDS011;60035;52.122;5.406;2023-07-24T09:07:08;10.77;;;4.20;;
72156;SDS011;60035;52.122;5.406;2023-07-24T09:09:36;10.15;;;4.65;;
72156;SDS011;60035;52.122;5.406;2023-07-24T09:12:02;10.82;;;4.82;;
72156;SDS011;60035;52.122;5.406;2023-07-24T09:14:29;9.88;;;4.70;;
72156;SDS011;60035;52.122;5.406;2023-07-24T09:17:01;10.32;;;5.10;;
72156;SDS011;60035;52.122;5.406;2023-07-24T09:19:37;10.18;;;4.75;;
72156;SDS011;60035;52.122;5.406;2023-07-24T09:22:11;9.57;;;4.05;;
72156;SDS011;60035;52.122;5.406;2023-07-24T09:24:51;9.32;;;4.20;;
72156;SDS011;60035;52.122;5.406;2023-07-24T09:27:18;9.82;;;4.22;;
72156;SDS011;60035;52.122;5.406;2023-07-24T09:29:46;9.40;;;4.43;;
72156;SDS011;60035;52.122;5.406;2023-07-24T09:32:22;11.68;;;4.32;;
72156;SDS011;60035;52.122;5.406;2023-07-24T09:34:50;9.18;;;4.10;;
72156;SDS011;60035;52.122;5.406;2023-07-24T09:37:26;9.88;;;3.90;;
72156;SDS011;60035;52.122;5.406;2023-07-24T09:39:54;9.48;;;4.13;;
72156;SDS011;60035;52.122;5.406;2023-07-24T09:42:28;9.80;;;4.22;;
72156;SDS011;60035;52.122;5.406;2023-07-24T09:44:55;8.23;;;3.90;;
72156;SDS011;60035;52.122;5.406;2023-07-24T09:47:22;10.68;;;4.50;;
72156;SDS011;60035;52.122;5.406;2023-07-24T09:50:08;15.77;;;4.57;;
72156;SDS011;60035;52.122;5.406;2023-07-24T09:52:36;11.60;;;4.50;;
72156;SDS011;60035;52.122;5.406;2023-07-24T09:55:11;11.07;;;4.70;;
72156;SDS011;60035;52.122;5.406;2023-07-24T09:57:42;9.88;;;4.55;;
72156;SDS011;60035;52.122;5.406;2023-07-24T10:00:11;10.23;;;4.75;;
72156;SDS011;60035;52.122;5.406;2023-07-24T10:02:38;10.30;;;4.38;;
72156;SDS011;60035;52.122;5.406;2023-07-24T10:05:06;10.23;;;4.18;;
72156;SDS011;60035;52.122;5.406;2023-07-24T10:07:33;9.95;;;3.83;;
72156;SDS011;60035;52.122;5.406;2023-07-24T10:10:01;9.82;;;4.28;;
72156;SDS011;60035;52.122;5.406;2023-07-24T10:12:28;10.13;;;4.10;;
72156;SDS011;60035;52.122;5.406;2023-07-24T10:14:57;10.10;;;3.92;;
72156;SDS011;60035;52.122;5.406;2023-07-24T10:17:37;8.52;;;3.92;;
72156;SDS011;60035;52.122;5.406;2023-07-24T10:20:05;9.88;;;4.18;;
72156;SDS011;60035;52.122;5.406;2023-07-24T10:22:33;9.75;;;4.05;;
72156;SDS011;60035;52.122;5.406;2023-07-24T10:25:00;10.73;;;3.95;;
72156;SDS011;60035;52.122;5.406;2023-07-24T10:27:27;10.40;;;4.13;;
72156;SDS011;60035;52.122;5.406;2023-07-24T10:30:01;8.55;;;3.88;;
72156;SDS011;60035;52.122;5.406;2023-07-24T10:32:53;7.80;;;3.75;;
72156;SDS011;60035;52.122;5.406;2023-07-24T10:35:21;10.45;;;3.92;;
72156;SDS011;60035;52.122;5.406;2023-07-24T10:37:58;10.98;;;4.20;;
72156;SDS011;60035;52.122;5.406;2023-07-24T10:40:26;8.80;;;3.85;;
72156;SDS011;60035;52.122;5.406;2023-07-24T10:43:26;9.68;;;3.53;;
72156;SDS011;60035;52.122;5.406;2023-07-24T10:45:50;9.07;;;3.20;;
72156;SDS011;60035;52.122;5.406;2023-07-24T10:48:19;9.60;;;3.80;;
72156;SDS011;60035;52.122;5.406;2023-07-24T10:50:48;9.48;;;3.63;;
72156;SDS011;60035;52.122;5.406;2023-07-24T10:53:20;12.05;;;3.75;;
72156;SDS011;60035;52.122;5.406;2023-07-24T10:55:47;7.63;;;3.30;;
72156;SDS011;60035;52.122;5.406;2023-07-24T10:58:15;7.05;;;3.17;;
72156;SDS011;60035;52.122;5.406;2023-07-24T11:00:42;10.55;;;3.85;;
72156;SDS011;60035;52.122;5.406;2023-07-24T11:03:10;8.90;;;3.35;;
72156;SDS011;60035;52.122;5.406;2023-07-24T11:05:41;7.18;;;3.40;;
72156;SDS011;60035;52.122;5.406;2023-07-24T11:08:12;9.23;;;3.35;;
72156;SDS011;60035;52.122;5.406;2023-07-24T11:10:45;8.65;;;4.00;;
72156;SDS011;60035;52.122;5.406;2023-07-24T11:13:16;8.45;;;4.10;;
72156;SDS011;60035;52.122;5.406;2023-07-24T11:15:43;8.35;;;3.60;;
72156;SDS011;60035;52.122;5.406;2023-07-24T11:18:10;9.23;;;4.13;;
72156;SDS011;60035;52.122;5.406;2023-07-24T11:20:38;10.52;;;4.13;;
72156;SDS011;60035;52.122;5.406;2023-07-24T11:23:09;8.00;;;3.92;;
72156;SDS011;60035;52.122;5.406;2023-07-24T11:25:36;12.55;;;4.20;;
72156;SDS011;60035;52.122;5.406;2023-07-24T11:28:07;9.40;;;4.20;;
72156;SDS011;60035;52.122;5.406;2023-07-24T11:30:35;12.27;;;4.65;;
72156;SDS011;60035;52.122;5.406;2023-07-24T11:33:03;9.10;;;4.00;;
72156;SDS011;60035;52.122;5.406;2023-07-24T11:35:31;10.07;;;4.60;;
72156;SDS011;60035;52.122;5.406;2023-07-24T11:37:59;9.98;;;4.10;;
72156;SDS011;60035;52.122;5.406;2023-07-24T11:40:32;11.25;;;4.65;;
72156;SDS011;60035;52.122;5.406;2023-07-24T11:43:03;9.18;;;4.50;;
72156;SDS011;60035;52.122;5.406;2023-07-24T11:45:30;9.88;;;4.93;;
72156;SDS011;60035;52.122;5.406;2023-07-24T11:47:57;12.38;;;5.40;;
72156;SDS011;60035;52.122;5.406;2023-07-24T11:50:25;10.68;;;5.53;;
72156;SDS011;60035;52.122;5.406;2023-07-24T11:52:51;10.02;;;5.65;;
72156;SDS011;60035;52.122;5.406;2023-07-24T11:55:20;10.73;;;5.57;;
72156;SDS011;60035;52.122;5.406;2023-07-24T11:57:57;10.98;;;5.93;;
72156;SDS011;60035;52.122;5.406;2023-07-24T12:00:24;11.77;;;6.20;;
72156;SDS011;60035;52.122;5.406;2023-07-24T12:02:52;10.40;;;5.05;;
72156;SDS011;60035;52.122;5.406;2023-07-24T12:05:18;11.10;;;5.20;;
72156;SDS011;60035;52.122;5.406;2023-07-24T12:07:45;12.70;;;5.68;;
72156;SDS011;60035;52.122;5.406;2023-07-24T12:10:12;12.52;;;4.97;;
72156;SDS011;60035;52.122;5.406;2023-07-24T12:12:43;10.18;;;4.43;;
72156;SDS011;60035;52.122;5.406;2023-07-24T12:15:13;10.05;;;4.13;;
72156;SDS011;60035;52.122;5.406;2023-07-24T12:17:40;12.20;;;4.70;;
72156;SDS011;60035;52.122;5.406;2023-07-24T12:20:07;9.98;;;4.32;;
72156;SDS011;60035;52.122;5.406;2023-07-24T12:22:36;10.50;;;4.38;;
72156;SDS011;60035;52.122;5.406;2023-07-24T12:25:03;10.48;;;4.15;;
72156;SDS011;60035;52.122;5.406;2023-07-24T12:27:30;10.48;;;4.40;;
72156;SDS011;60035;52.122;5.406;2023-07-24T12:29:57;10.82;;;4.70;;
72156;SDS011;60035;52.122;5.406;2023-07-24T12:32:24;8.77;;;4.50;;
72156;SDS011;60035;52.122;5.406;2023-07-24T12:34:51;8.82;;;3.90;;
72156;SDS011;60035;52.122;5.406;2023-07-24T12:37:19;9.73;;;4.43;;
72156;SDS011;60035;52.122;5.406;2023-07-24T12:39:46;8.90;;;3.97;;
72156;SDS011;60035;52.122;5.406;2023-07-24T12:42:14;9.02;;;4.93;;
72156;SDS011;60035;52.122;5.406;2023-07-24T12:44:41;9.77;;;4.28;;
72156;SDS011;60035;52.122;5.406;2023-07-24T12:47:09;10.00;;;4.43;;
72156;SDS011;60035;52.122;5.406;2023-07-24T12:49:37;8.88;;;4.72;;
72156;SDS011;60035;52.122;5.406;2023-07-24T12:52:04;9.00;;;4.22;;
72156;SDS011;60035;52.122;5.406;2023-07-24T12:54:31;12.80;;;5.00;;
72156;SDS011;60035;52.122;5.406;2023-07-24T12:57:18;6.43;;;2.97;;
72156;SDS011;60035;52.122;5.406;2023-07-24T12:59:45;8.05;;;2.90;;
72156;SDS011;60035;52.122;5.406;2023-07-24T13:02:11;7.88;;;3.00;;
72156;SDS011;60035;52.122;5.406;2023-07-24T13:04:38;9.45;;;3.90;;
72156;SDS011;60035;52.122;5.406;2023-07-24T13:07:04;12.23;;;4.80;;
72156;SDS011;60035;52.122;5.406;2023-07-24T13:09:31;11.38;;;5.60;;
72156;SDS011;60035;52.122;5.406;2023-07-24T13:11:58;12.32;;;6.13;;
72156;SDS011;60035;52.122;5.406;2023-07-24T13:14:24;13.27;;;6.75;;
72156;SDS011;60035;52.122;5.406;2023-07-24T13:16:51;12.18;;;6.65;;
72156;SDS011;60035;52.122;5.406;2023-07-24T13:19:19;12.95;;;6.25;;
72156;SDS011;60035;52.122;5.406;2023-07-24T13:21:46;14.25;;;6.13;;
72156;SDS011;60035;52.122;5.406;2023-07-24T13:24:13;15.98;;;6.80;;
72156;SDS011;60035;52.122;5.406;2023-07-24T13:26:40;14.05;;;6.55;;
72156;SDS011;60035;52.122;5.406;2023-07-24T13:29:07;14.75;;;6.90;;
72156;SDS011;60035;52.122;5.406;2023-07-24T13:31:33;15.73;;;6.55;;
72156;SDS011;60035;52.122;5.406;2023-07-24T13:34:01;13.13;;;6.28;;
72156;SDS011;60035;52.122;5.406;2023-07-24T13:36:28;13.73;;;6.13;;
72156;SDS011;60035;52.122;5.406;2023-07-24T13:38:55;13.30;;;6.30;;
72156;SDS011;60035;52.122;5.406;2023-07-24T13:41:22;12.93;;;5.97;;
72156;SDS011;60035;52.122;5.406;2023-07-24T13:43:49;11.82;;;5.80;;
72156;SDS011;60035;52.122;5.406;2023-07-24T13:46:15;12.38;;;5.93;;
72156;SDS011;60035;52.122;5.406;2023-07-24T13:48:42;13.20;;;6.35;;
72156;SDS011;60035;52.122;5.406;2023-07-24T13:51:09;14.85;;;5.90;;
72156;SDS011;60035;52.122;5.406;2023-07-24T13:53:37;13.05;;;5.78;;
72156;SDS011;60035;52.122;5.406;2023-07-24T13:56:04;12.60;;;4.72;;
72156;SDS011;60035;52.122;5.406;2023-07-24T13:58:31;9.05;;;4.05;;
72156;SDS011;60035;52.122;5.406;2023-07-24T14:00:57;10.25;;;3.90;;
72156;SDS011;60035;52.122;5.406;2023-07-24T14:03:24;9.80;;;4.18;;
72156;SDS011;60035;52.122;5.406;2023-07-24T14:05:56;10.15;;;4.65;;
72156;SDS011;60035;52.122;5.406;2023-07-24T14:08:23;9.82;;;4.60;;
72156;SDS011;60035;52.122;5.406;2023-07-24T14:10:50;10.30;;;4.63;;
72156;SDS011;60035;52.122;5.406;2023-07-24T14:13:17;9.77;;;4.57;;
72156;SDS011;60035;52.122;5.406;2023-07-24T14:15:44;9.95;;;4.53;;
72156;SDS011;60035;52.122;5.406;2023-07-24T14:18:11;10.15;;;5.43;;
72156;SDS011;60035;52.122;5.406;2023-07-24T14:20:37;10.63;;;4.97;;
72156;SDS011;60035;52.122;5.406;2023-07-24T14:23:06;12.80;;;6.15;;
72156;SDS011;60035;52.122;5.406;2023-07-24T14:25:34;12.77;;;5.85;;
72156;SDS011;60035;52.122;5.406;2023-07-24T14:28:01;10.98;;;5.50;;
72156;SDS011;60035;52.122;5.406;2023-07-24T14:30:28;11.60;;;6.20;;
72156;SDS011;60035;52.122;5.406;2023-07-24T14:32:55;11.52;;;5.90;;
72156;SDS011;60035;52.122;5.406;2023-07-24T14:35:22;8.15;;;3.47;;
72156;SDS011;60035;52.122;5.406;2023-07-24T14:37:49;6.55;;;2.63;;
72156;SDS011;60035;52.122;5.406;2023-07-24T14:40:16;7.15;;;2.45;;
72156;SDS011;60035;52.122;5.406;2023-07-24T14:42:43;5.97;;;2.80;;
72156;SDS011;60035;52.122;5.406;2023-07-24T14:45:10;6.25;;;2.08;;
72156;SDS011;60035;52.122;5.406;2023-07-24T14:47:36;6.97;;;2.83;;
72156;SDS011;60035;52.122;5.406;2023-07-24T14:50:03;7.10;;;2.90;;
72156;SDS011;60035;52.122;5.406;2023-07-24T14:52:30;5.57;;;2.03;;
72156;SDS011;60035;52.122;5.406;2023-07-24T14:54:57;4.60;;;1.90;;